sensor_id;sensor_type;location;lat;lon;timestamp;temperature;humidity
8402;DHT22;4238;48.404;9.498;2023-12-04T05:01:40;-5.70;19.00
8402;DHT22;4238;48.404;9.498;2023-12-04T05:04:06;-6.00;24.60
8402;DHT22;4238;48.404;9.498;2023-12-04T05:06:33;-6.00;27.30
8402;DHT22;4238;48.404;9.498;2023-12-04T05:09:00;-5.90;20.30
8402;DHT22;4238;48.404;9.498;2023-12-04T05:11:27;-5.90;15.20
8402;DHT22;4238;48.404;9.498;2023-12-04T05:13:54;-5.90;1.60
8402;DHT22;4238;48.404;9.498;2023-12-04T05:16:20;-5.90;1.00
8402;DHT22;4238;48.404;9.498;2023-12-04T05:18:49;-6.00;1.00
8402;DHT22;4238;48.404;9.498;2023-12-04T05:21:15;-6.20;1.00
8402;DHT22;4238;48.404;9.498;2023-12-04T05:23:43;-6.20;4.90
8402;DHT22;4238;48.404;9.498;2023-12-04T05:26:09;-6.00;1.00
8402;DHT22;4238;48.404;9.498;2023-12-04T05:28:36;-6.00;1.00
8402;DHT22;4238;48.404;9.498;2023-12-04T05:31:03;-6.20;10.80
8402;DHT22;4238;48.404;9.498;2023-12-04T05:33:30;-6.20;25.60
8402;DHT22;4238;48.404;9.498;2023-12-04T05:35:59;-6.20;29.90
8402;DHT22;4238;48.404;9.498;2023-12-04T05:38:26;-6.10;48.10
8402;DHT22;4238;48.404;9.498;2023-12-04T05:40:53;-6.00;31.30
8402;DHT22;4238;48.404;9.498;2023-12-04T05:43:20;-5.90;38.30
8402;DHT22;4238;48.404;9.498;2023-12-04T05:45:47;-5.90;36.80
8402;DHT22;4238;48.404;9.498;2023-12-04T05:48:14;-6.00;28.80
8402;DHT22;4238;48.404;9.498;2023-12-04T05:50:41;-6.00;31.30
8402;DHT22;4238;48.404;9.498;2023-12-04T05:53:09;-6.00;13.40
8402;DHT22;4238;48.404;9.498;2023-12-04T05:55:35;-6.30;12.30
8402;DHT22;4238;48.404;9.498;2023-12-04T05:58:02;-6.50;17.70
8402;DHT22;4238;48.404;9.498;2023-12-04T06:00:29;-6.60;24.70
8402;DHT22;4238;48.404;9.498;2023-12-04T06:02:56;-6.70;37.40
8402;DHT22;4238;48.404;9.498;2023-12-04T06:05:24;-6.80;50.90
8402;DHT22;4238;48.404;9.498;2023-12-04T06:07:50;-6.70;62.30
8402;DHT22;4238;48.404;9.498;2023-12-04T06:10:18;-6.60;54.90
8402;DHT22;4238;48.404;9.498;2023-12-04T06:12:45;-6.40;44.90
8402;DHT22;4238;48.404;9.498;2023-12-04T06:15:12;-6.40;39.70
8402;DHT22;4238;48.404;9.498;2023-12-04T06:17:39;-6.20;31.10
8402;DHT22;4238;48.404;9.498;2023-12-04T06:20:07;-6.30;18.60
8402;DHT22;4238;48.404;9.498;2023-12-04T06:22:34;-6.50;22.90
8402;DHT22;4238;48.404;9.498;2023-12-04T06:25:01;-6.40;31.10
8402;DHT22;4238;48.404;9.498;2023-12-04T06:27:31;-6.30;34.00
8402;DHT22;4238;48.404;9.498;2023-12-04T06:29:58;-6.30;31.30
8402;DHT22;4238;48.404;9.498;2023-12-04T06:32:25;-6.30;31.20
8402;DHT22;4238;48.404;9.498;2023-12-04T06:34:53;-6.20;38.60
8402;DHT22;4238;48.404;9.498;2023-12-04T06:37:21;-6.10;36.30
8402;DHT22;4238;48.404;9.498;2023-12-04T06:39:48;-6.20;38.00
8402;DHT22;4238;48.404;9.498;2023-12-04T06:42:17;-6.00;36.20
8402;DHT22;4238;48.404;9.498;2023-12-04T06:44:45;-5.90;30.40
8402;DHT22;4238;48.404;9.498;2023-12-04T06:47:13;-5.90;34.00
8402;DHT22;4238;48.404;9.498;2023-12-04T06:49:44;-5.80;47.10
8402;DHT22;4238;48.404;9.498;2023-12-04T06:52:10;-5.60;40.40
8402;DHT22;4238;48.404;9.498;2023-12-04T06:54:37;-5.60;47.40
8402;DHT22;4238;48.404;9.498;2023-12-04T06:57:04;-5.60;48.90
8402;DHT22;4238;48.404;9.498;2023-12-04T06:59:31;-5.70;44.40
8402;DHT22;4238;48.404;9.498;2023-12-04T07:01:59;-5.70;52.50
8402;DHT22;4238;48.404;9.498;2023-12-04T07:04:27;-5.60;41.60
8402;DHT22;4238;48.404;9.498;2023-12-04T07:06:55;-5.80;27.30
8402;DHT22;4238;48.404;9.498;2023-12-04T07:09:23;-5.90;37.60
8402;DHT22;4238;48.404;9.498;2023-12-04T07:11:50;-5.90;44.80
8402;DHT22;4238;48.404;9.498;2023-12-04T07:14:17;-5.90;49.80
8402;DHT22;4238;48.404;9.498;2023-12-04T07:16:44;-5.80;60.70
8402;DHT22;4238;48.404;9.498;2023-12-04T07:19:12;-5.80;55.90
8402;DHT22;4238;48.404;9.498;2023-12-04T07:21:40;-5.80;53.90
8402;DHT22;4238;48.404;9.498;2023-12-04T07:24:07;-5.60;58.00
8402;DHT22;4238;48.404;9.498;2023-12-04T07:26:35;-5.70;46.80
8402;DHT22;4238;48.404;9.498;2023-12-04T07:29:02;-5.70;48.50
8402;DHT22;4238;48.404;9.498;2023-12-04T07:31:28;-5.60;52.70
8402;DHT22;4238;48.404;9.498;2023-12-04T07:33:56;-5.70;48.30
8402;DHT22;4238;48.404;9.498;2023-12-04T07:36:27;-5.70;51.40
8402;DHT22;4238;48.404;9.498;2023-12-04T07:38:54;-5.60;52.90
8402;DHT22;4238;48.404;9.498;2023-12-04T07:41:21;-5.40;57.30
8402;DHT22;4238;48.404;9.498;2023-12-04T07:43:48;-5.30;48.20
8402;DHT22;4238;48.404;9.498;2023-12-04T07:46:14;-5.20;36.70
8402;DHT22;4238;48.404;9.498;2023-12-04T07:48:42;-5.10;27.10
8402;DHT22;4238;48.404;9.498;2023-12-04T07:51:09;-5.20;23.40
8402;DHT22;4238;48.404;9.498;2023-12-04T07:53:37;-5.30;29.70
8402;DHT22;4238;48.404;9.498;2023-12-04T07:56:05;-5.30;24.90
8402;DHT22;4238;48.404;9.498;2023-12-04T07:58:32;-5.40;25.80
8402;DHT22;4238;48.404;9.498;2023-12-04T08:00:59;-5.50;25.80
8402;DHT22;4238;48.404;9.498;2023-12-04T08:03:26;-5.40;16.90
8402;DHT22;4238;48.404;9.498;2023-12-04T08:05:53;-5.70;36.00
8402;DHT22;4238;48.404;9.498;2023-12-04T08:08:20;-5.50;49.70
8402;DHT22;4238;48.404;9.498;2023-12-04T08:10:49;-5.40;46.90
8402;DHT22;4238;48.404;9.498;2023-12-04T08:13:16;-5.30;42.70
8402;DHT22;4238;48.404;9.498;2023-12-04T08:15:43;-5.20;49.50
8402;DHT22;4238;48.404;9.498;2023-12-04T08:18:09;-4.90;39.70
8402;DHT22;4238;48.404;9.498;2023-12-04T08:20:36;-4.60;33.50
8402;DHT22;4238;48.404;9.498;2023-12-04T08:23:03;-4.50;15.60
8402;DHT22;4238;48.404;9.498;2023-12-04T08:25:31;-4.30;17.20
8402;DHT22;4238;48.404;9.498;2023-12-04T08:27:59;-4.30;14.10
8402;DHT22;4238;48.404;9.498;2023-12-04T08:30:26;-4.20;1.00
8402;DHT22;4238;48.404;9.498;2023-12-04T08:32:53;-4.20;1.00
8402;DHT22;4238;48.404;9.498;2023-12-04T08:35:20;-4.40;1.00
8402;DHT22;4238;48.404;9.498;2023-12-04T08:37:47;-4.30;8.00
8402;DHT22;4238;48.404;9.498;2023-12-04T08:40:14;-4.40;11.10
8402;DHT22;4238;48.404;9.498;2023-12-04T08:42:41;-4.30;24.10
8402;DHT22;4238;48.404;9.498;2023-12-04T08:45:11;-4.10;19.80
8402;DHT22;4238;48.404;9.498;2023-12-04T08:47:37;-4.00;18.50
8402;DHT22;4238;48.404;9.498;2023-12-04T08:50:05;-3.90;1.00
8402;DHT22;4238;48.404;9.498;2023-12-04T08:52:32;-4.10;1.00
8402;DHT22;4238;48.404;9.498;2023-12-04T08:54:59;-4.10;1.00
8402;DHT22;4238;48.404;9.498;2023-12-04T08:57:27;-4.20;8.70
8402;DHT22;4238;48.404;9.498;2023-12-04T08:59:53;-4.20;19.70
8402;DHT22;4238;48.404;9.498;2023-12-04T09:02:22;-4.20;14.70
8402;DHT22;4238;48.404;9.498;2023-12-04T09:04:48;-4.00;1.00
8402;DHT22;4238;48.404;9.498;2023-12-04T09:07:15;-4.10;1.00
8402;DHT22;4238;48.404;9.498;2023-12-04T09:09:42;-3.90;19.00
8402;DHT22;4238;48.404;9.498;2023-12-04T09:12:10;-4.00;5.70
8402;DHT22;4238;48.404;9.498;2023-12-04T09:14:37;-4.00;9.80
8402;DHT22;4238;48.404;9.498;2023-12-04T09:17:04;-3.90;5.00
8402;DHT22;4238;48.404;9.498;2023-12-04T09:19:32;-3.90;17.20
8402;DHT22;4238;48.404;9.498;2023-12-04T09:21:59;-3.80;20.20
8402;DHT22;4238;48.404;9.498;2023-12-04T09:24:25;-3.50;22.50
8402;DHT22;4238;48.404;9.498;2023-12-04T09:26:53;-3.10;4.50
8402;DHT22;4238;48.404;9.498;2023-12-04T09:29:20;-3.10;1.00
8402;DHT22;4238;48.404;9.498;2023-12-04T09:31:50;-3.00;1.00
8402;DHT22;4238;48.404;9.498;2023-12-04T09:34:17;-2.80;1.00
8402;DHT22;4238;48.404;9.498;2023-12-04T09:36:47;-3.10;1.00
8402;DHT22;4238;48.404;9.498;2023-12-04T09:39:13;-3.10;1.00
8402;DHT22;4238;48.404;9.498;2023-12-04T09:41:42;-3.10;1.00
8402;DHT22;4238;48.404;9.498;2023-12-04T09:44:10;-2.80;1.00
8402;DHT22;4238;48.404;9.498;2023-12-04T09:46:38;-2.90;1.00
8402;DHT22;4238;48.404;9.498;2023-12-04T09:49:05;-3.10;1.00
8402;DHT22;4238;48.404;9.498;2023-12-04T09:51:33;-3.00;1.00
8402;DHT22;4238;48.404;9.498;2023-12-04T09:54:02;-3.00;1.00
8402;DHT22;4238;48.404;9.498;2023-12-04T09:56:30;-2.90;1.00
8402;DHT22;4238;48.404;9.498;2023-12-04T09:58:59;-2.80;1.00
8402;DHT22;4238;48.404;9.498;2023-12-04T10:01:28;-2.80;1.00
8402;DHT22;4238;48.404;9.498;2023-12-04T10:03:56;-2.50;1.00
8402;DHT22;4238;48.404;9.498;2023-12-04T10:06:26;-2.60;1.00
8402;DHT22;4238;48.404;9.498;2023-12-04T10:08:55;-2.60;1.00
8402;DHT22;4238;48.404;9.498;2023-12-04T10:11:24;-2.40;1.00
8402;DHT22;4238;48.404;9.498;2023-12-04T10:13:52;-2.30;1.00
8402;DHT22;4238;48.404;9.498;2023-12-04T10:16:32;-2.40;1.00
8402;DHT22;4238;48.404;9.498;2023-12-04T10:19:15;-2.30;1.00
8402;DHT22;4238;48.404;9.498;2023-12-04T10:21:43;-2.40;1.00
8402;DHT22;4238;48.404;9.498;2023-12-04T10:24:10;-2.70;1.00
8402;DHT22;4238;48.404;9.498;2023-12-04T10:26:43;-2.60;1.00
8402;DHT22;4238;48.404;9.498;2023-12-04T10:29:15;-2.50;1.00
8402;DHT22;4238;48.404;9.498;2023-12-04T10:31:42;-2.40;1.00
8402;DHT22;4238;48.404;9.498;2023-12-04T10:34:09;-2.60;1.00
8402;DHT22;4238;48.404;9.498;2023-12-04T10:36:36;-2.50;1.00
8402;DHT22;4238;48.404;9.498;2023-12-04T10:39:03;-2.20;1.00
8402;DHT22;4238;48.404;9.498;2023-12-04T10:41:31;-1.90;1.00
8402;DHT22;4238;48.404;9.498;2023-12-04T10:43:59;-1.80;1.00
8402;DHT22;4238;48.404;9.498;2023-12-04T10:46:26;-1.80;1.00
8402;DHT22;4238;48.404;9.498;2023-12-04T10:48:56;-1.80;1.00
8402;DHT22;4238;48.404;9.498;2023-12-04T10:51:24;-1.40;1.00
8402;DHT22;4238;48.404;9.498;2023-12-04T10:53:52;-1.40;1.00
8402;DHT22;4238;48.404;9.498;2023-12-04T10:56:27;-1.10;1.00
8402;DHT22;4238;48.404;9.498;2023-12-04T10:58:59;-0.70;1.00
8402;DHT22;4238;48.404;9.498;2023-12-04T11:01:27;-0.60;1.00
8402;DHT22;4238;48.404;9.498;2023-12-04T11:03:56;-0.80;99.90
8402;DHT22;4238;48.404;9.498;2023-12-04T11:06:25;-0.80;99.90
8402;DHT22;4238;48.404;9.498;2023-12-04T11:08:56;-0.90;1.00
8402;DHT22;4238;48.404;9.498;2023-12-04T11:11:27;-0.70;1.00
8402;DHT22;4238;48.404;9.498;2023-12-04T11:14:01;-0.60;1.00
8402;DHT22;4238;48.404;9.498;2023-12-04T11:16:33;-0.50;1.00
8402;DHT22;4238;48.404;9.498;2023-12-04T11:19:08;-0.40;1.00
8402;DHT22;4238;48.404;9.498;2023-12-04T11:21:39;-0.30;1.00
8402;DHT22;4238;48.404;9.498;2023-12-04T11:24:07;-0.10;1.00
8402;DHT22;4238;48.404;9.498;2023-12-04T11:26:35;-0.10;1.00
8402;DHT22;4238;48.404;9.498;2023-12-04T11:29:04;-0.10;1.00
8402;DHT22;4238;48.404;9.498;2023-12-04T11:31:31;-0.10;1.00
8402;DHT22;4238;48.404;9.498;2023-12-04T11:34:01;0.00;1.00
8402;DHT22;4238;48.404;9.498;2023-12-04T11:36:29;0.00;1.00
8402;DHT22;4238;48.404;9.498;2023-12-04T11:38:56;0.00;1.00
8402;DHT22;4238;48.404;9.498;2023-12-04T11:41:24;-0.10;1.00
8402;DHT22;4238;48.404;9.498;2023-12-04T11:43:51;-0.10;1.00
8402;DHT22;4238;48.404;9.498;2023-12-04T11:46:21;-0.10;1.00
8402;DHT22;4238;48.404;9.498;2023-12-04T11:48:49;0.00;1.00
8402;DHT22;4238;48.404;9.498;2023-12-04T11:51:45;0.20;1.00
8402;DHT22;4238;48.404;9.498;2023-12-04T11:54:17;0.50;1.00
8402;DHT22;4238;48.404;9.498;2023-12-04T11:56:57;0.80;1.00
8402;DHT22;4238;48.404;9.498;2023-12-04T11:59:24;1.00;99.90
8402;DHT22;4238;48.404;9.498;2023-12-04T12:01:54;1.20;99.90
8402;DHT22;4238;48.404;9.498;2023-12-04T12:04:21;1.40;1.00
8402;DHT22;4238;48.404;9.498;2023-12-04T12:06:49;1.50;1.00
8402;DHT22;4238;48.404;9.498;2023-12-04T12:09:16;1.60;1.00
8402;DHT22;4238;48.404;9.498;2023-12-04T12:11:43;1.60;1.00
8402;DHT22;4238;48.404;9.498;2023-12-04T12:14:10;1.80;1.00
8402;DHT22;4238;48.404;9.498;2023-12-04T12:16:37;1.90;1.00
8402;DHT22;4238;48.404;9.498;2023-12-04T12:19:05;2.30;1.00
8402;DHT22;4238;48.404;9.498;2023-12-04T12:21:32;2.70;1.00
8402;DHT22;4238;48.404;9.498;2023-12-04T12:24:00;2.40;1.00
8402;DHT22;4238;48.404;9.498;2023-12-04T12:26:28;1.80;1.00
8402;DHT22;4238;48.404;9.498;2023-12-04T12:28:55;1.20;1.00
8402;DHT22;4238;48.404;9.498;2023-12-04T12:31:22;1.20;1.00
8402;DHT22;4238;48.404;9.498;2023-12-04T12:33:49;1.20;1.00
8402;DHT22;4238;48.404;9.498;2023-12-04T12:36:17;0.80;1.00
8402;DHT22;4238;48.404;9.498;2023-12-04T12:38:44;0.90;1.00
8402;DHT22;4238;48.404;9.498;2023-12-04T12:41:15;0.60;1.00
8402;DHT22;4238;48.404;9.498;2023-12-04T12:43:42;0.50;1.00
8402;DHT22;4238;48.404;9.498;2023-12-04T12:46:10;0.60;1.00
8402;DHT22;4238;48.404;9.498;2023-12-04T12:48:37;0.80;1.00
8402;DHT22;4238;48.404;9.498;2023-12-04T12:51:04;0.90;1.00
8402;DHT22;4238;48.404;9.498;2023-12-04T12:53:33;1.10;1.00
8402;DHT22;4238;48.404;9.498;2023-12-04T12:56:00;0.90;1.00
8402;DHT22;4238;48.404;9.498;2023-12-04T12:58:27;0.90;1.00
8402;DHT22;4238;48.404;9.498;2023-12-04T13:00:55;0.80;1.00
8402;DHT22;4238;48.404;9.498;2023-12-04T13:03:22;0.70;1.00
8402;DHT22;4238;48.404;9.498;2023-12-04T13:05:49;0.60;1.00
8402;DHT22;4238;48.404;9.498;2023-12-04T13:08:16;0.50;1.00
8402;DHT22;4238;48.404;9.498;2023-12-04T13:10:44;0.60;1.00
8402;DHT22;4238;48.404;9.498;2023-12-04T13:13:12;0.60;1.00
8402;DHT22;4238;48.404;9.498;2023-12-04T13:15:38;0.60;1.00
8402;DHT22;4238;48.404;9.498;2023-12-04T13:18:07;0.40;1.00
8402;DHT22;4238;48.404;9.498;2023-12-04T13:20:33;0.00;1.00
8402;DHT22;4238;48.404;9.498;2023-12-04T13:23:01;-0.30;1.00
8402;DHT22;4238;48.404;9.498;2023-12-04T13:25:28;-0.40;1.00
8402;DHT22;4238;48.404;9.498;2023-12-04T13:27:56;-0.30;1.00
8402;DHT22;4238;48.404;9.498;2023-12-04T13:30:23;-0.20;1.00
8402;DHT22;4238;48.404;9.498;2023-12-04T13:32:49;-0.20;1.00
8402;DHT22;4238;48.404;9.498;2023-12-04T13:35:17;-0.10;10.50
8402;DHT22;4238;48.404;9.498;2023-12-04T13:37:44;0.00;12.50
8402;DHT22;4238;48.404;9.498;2023-12-04T13:40:11;0.00;1.00
8402;DHT22;4238;48.404;9.498;2023-12-04T13:42:41;0.10;1.00
8402;DHT22;4238;48.404;9.498;2023-12-04T13:45:27;0.00;1.00
8402;DHT22;4238;48.404;9.498;2023-12-04T13:47:54;0.00;1.00
8402;DHT22;4238;48.404;9.498;2023-12-04T13:50:21;-0.10;1.00
8402;DHT22;4238;48.404;9.498;2023-12-04T13:52:47;0.20;10.40
8402;DHT22;4238;48.404;9.498;2023-12-04T13:55:20;0.30;1.00
8402;DHT22;4238;48.404;9.498;2023-12-04T13:58:02;0.20;1.00
8402;DHT22;4238;48.404;9.498;2023-12-04T14:00:37;-0.10;1.00
8402;DHT22;4238;48.404;9.498;2023-12-04T14:03:04;-0.30;1.00
8402;DHT22;4238;48.404;9.498;2023-12-04T14:05:32;-0.50;1.00
8402;DHT22;4238;48.404;9.498;2023-12-04T14:07:59;-0.70;1.00
8402;DHT22;4238;48.404;9.498;2023-12-04T14:10:26;-0.80;1.00
8402;DHT22;4238;48.404;9.498;2023-12-04T14:12:54;-0.60;6.20
8402;DHT22;4238;48.404;9.498;2023-12-04T14:15:20;-0.80;10.40
8402;DHT22;4238;48.404;9.498;2023-12-04T14:17:49;-0.90;10.40
8402;DHT22;4238;48.404;9.498;2023-12-04T14:20:15;-1.00;21.10
8402;DHT22;4238;48.404;9.498;2023-12-04T14:22:44;-1.10;28.40
8402;DHT22;4238;48.404;9.498;2023-12-04T14:25:12;-1.30;34.50
8402;DHT22;4238;48.404;9.498;2023-12-04T14:27:39;-1.20;41.80
8402;DHT22;4238;48.404;9.498;2023-12-04T14:30:09;-1.10;33.20
8402;DHT22;4238;48.404;9.498;2023-12-04T14:32:36;-1.30;22.10
8402;DHT22;4238;48.404;9.498;2023-12-04T14:35:06;-1.10;32.30
8402;DHT22;4238;48.404;9.498;2023-12-04T14:37:34;-1.20;34.90
8402;DHT22;4238;48.404;9.498;2023-12-04T14:40:01;-1.20;35.90
8402;DHT22;4238;48.404;9.498;2023-12-04T14:42:30;-1.10;36.40
8402;DHT22;4238;48.404;9.498;2023-12-04T14:44:56;-1.10;36.40
8402;DHT22;4238;48.404;9.498;2023-12-04T14:47:23;-1.10;54.80
8402;DHT22;4238;48.404;9.498;2023-12-04T14:49:50;-1.00;61.80
8402;DHT22;4238;48.404;9.498;2023-12-04T14:52:21;-0.90;34.90
8402;DHT22;4238;48.404;9.498;2023-12-04T14:54:48;-1.00;30.40
8402;DHT22;4238;48.404;9.498;2023-12-04T14:57:38;-1.10;22.30
8402;DHT22;4238;48.404;9.498;2023-12-04T15:00:35;-1.10;31.20
8402;DHT22;4238;48.404;9.498;2023-12-04T15:03:18;-1.20;25.20
8402;DHT22;4238;48.404;9.498;2023-12-04T15:06:22;-1.40;43.00
8402;DHT22;4238;48.404;9.498;2023-12-04T15:09:04;-1.40;57.00
8402;DHT22;4238;48.404;9.498;2023-12-04T15:11:47;-1.30;51.20
8402;DHT22;4238;48.404;9.498;2023-12-04T15:14:40;-1.60;45.50
8402;DHT22;4238;48.404;9.498;2023-12-04T15:17:14;-1.60;65.90
8402;DHT22;4238;48.404;9.498;2023-12-04T15:19:54;-1.70;68.60
8402;DHT22;4238;48.404;9.498;2023-12-04T15:22:41;-1.70;80.80
8402;DHT22;4238;48.404;9.498;2023-12-04T15:25:09;-1.60;79.10
8402;DHT22;4238;48.404;9.498;2023-12-04T15:27:37;-1.60;78.60
8402;DHT22;4238;48.404;9.498;2023-12-04T15:30:04;-1.60;64.40
8402;DHT22;4238;48.404;9.498;2023-12-04T15:32:32;-1.50;54.40
8402;DHT22;4238;48.404;9.498;2023-12-04T15:34:59;-1.50;55.20
8402;DHT22;4238;48.404;9.498;2023-12-04T15:37:24;-1.70;41.20
8402;DHT22;4238;48.404;9.498;2023-12-04T15:39:52;-1.70;56.80
8402;DHT22;4238;48.404;9.498;2023-12-04T15:42:20;-1.70;56.60
8402;DHT22;4238;48.404;9.498;2023-12-04T15:44:46;-1.80;61.50
8402;DHT22;4238;48.404;9.498;2023-12-04T15:47:13;-1.90;67.80
8402;DHT22;4238;48.404;9.498;2023-12-04T15:49:38;-1.90;74.00
8402;DHT22;4238;48.404;9.498;2023-12-04T15:52:05;-1.90;78.00
8402;DHT22;4238;48.404;9.498;2023-12-04T15:54:31;-1.80;75.90
8402;DHT22;4238;48.404;9.498;2023-12-04T15:56:59;-1.80;72.20
8402;DHT22;4238;48.404;9.498;2023-12-04T15:59:27;-1.80;79.20
8402;DHT22;4238;48.404;9.498;2023-12-04T16:01:53;-1.80;78.80
8402;DHT22;4238;48.404;9.498;2023-12-04T16:04:20;-1.80;66.20
8402;DHT22;4238;48.404;9.498;2023-12-04T16:06:47;-1.70;73.90
8402;DHT22;4238;48.404;9.498;2023-12-04T16:09:15;-1.80;72.40
8402;DHT22;4238;48.404;9.498;2023-12-04T16:11:41;-1.80;78.70
8402;DHT22;4238;48.404;9.498;2023-12-04T16:14:08;-1.80;71.50
8402;DHT22;4238;48.404;9.498;2023-12-04T16:16:37;-1.70;77.50
8402;DHT22;4238;48.404;9.498;2023-12-04T16:19:05;-1.60;65.00
8402;DHT22;4238;48.404;9.498;2023-12-04T16:21:31;-1.60;57.50
8402;DHT22;4238;48.404;9.498;2023-12-04T16:23:58;-1.70;60.00
8402;DHT22;4238;48.404;9.498;2023-12-04T16:26:28;-1.70;73.20
8402;DHT22;4238;48.404;9.498;2023-12-04T16:28:57;-1.60;75.00
8402;DHT22;4238;48.404;9.498;2023-12-04T16:31:23;-1.70;64.50
8402;DHT22;4238;48.404;9.498;2023-12-04T16:33:52;-1.70;81.10
8402;DHT22;4238;48.404;9.498;2023-12-04T16:36:18;-1.60;76.90
8402;DHT22;4238;48.404;9.498;2023-12-04T16:38:45;-1.60;66.70
8402;DHT22;4238;48.404;9.498;2023-12-04T16:41:13;-1.60;70.10
8402;DHT22;4238;48.404;9.498;2023-12-04T16:43:40;-1.80;76.00
8402;DHT22;4238;48.404;9.498;2023-12-04T16:46:08;-1.80;77.30
8402;DHT22;4238;48.404;9.498;2023-12-04T16:48:36;-1.70;82.10
8402;DHT22;4238;48.404;9.498;2023-12-04T16:51:05;-1.70;73.60
8402;DHT22;4238;48.404;9.498;2023-12-04T16:53:31;-1.70;73.40
8402;DHT22;4238;48.404;9.498;2023-12-04T16:55:58;-1.60;74.30
8402;DHT22;4238;48.404;9.498;2023-12-04T16:58:25;-1.60;64.90
8402;DHT22;4238;48.404;9.498;2023-12-04T17:00:52;-1.70;51.90
8402;DHT22;4238;48.404;9.498;2023-12-04T17:03:19;-1.70;54.60
8402;DHT22;4238;48.404;9.498;2023-12-04T17:05:46;-1.60;54.30
8402;DHT22;4238;48.404;9.498;2023-12-04T17:08:16;-1.60;57.80
8402;DHT22;4238;48.404;9.498;2023-12-04T17:10:43;-1.60;64.20
8402;DHT22;4238;48.404;9.498;2023-12-04T17:13:10;-1.50;61.40
8402;DHT22;4238;48.404;9.498;2023-12-04T17:15:36;-1.50;44.50
8402;DHT22;4238;48.404;9.498;2023-12-04T17:18:05;-1.60;54.40
8402;DHT22;4238;48.404;9.498;2023-12-04T17:20:33;-1.60;64.50
8402;DHT22;4238;48.404;9.498;2023-12-04T17:23:01;-1.50;38.10
8402;DHT22;4238;48.404;9.498;2023-12-04T17:25:30;-1.40;42.70
8402;DHT22;4238;48.404;9.498;2023-12-04T17:27:58;-1.20;36.80
8402;DHT22;4238;48.404;9.498;2023-12-04T17:30:25;-1.20;26.60
8402;DHT22;4238;48.404;9.498;2023-12-04T17:32:52;-1.20;29.50
8402;DHT22;4238;48.404;9.498;2023-12-04T17:35:19;-1.20;27.90
8402;DHT22;4238;48.404;9.498;2023-12-04T17:37:47;-1.30;28.30
8402;DHT22;4238;48.404;9.498;2023-12-04T17:40:14;-1.40;31.40
8402;DHT22;4238;48.404;9.498;2023-12-04T17:42:43;-1.40;45.00
8402;DHT22;4238;48.404;9.498;2023-12-04T17:45:10;-1.50;45.30
8402;DHT22;4238;48.404;9.498;2023-12-04T17:47:37;-1.40;50.00
8402;DHT22;4238;48.404;9.498;2023-12-04T17:50:04;-1.40;42.50
8402;DHT22;4238;48.404;9.498;2023-12-04T17:52:33;-1.60;43.70
8402;DHT22;4238;48.404;9.498;2023-12-04T17:55:00;-1.50;52.10
8402;DHT22;4238;48.404;9.498;2023-12-04T17:57:27;-1.60;54.70
8402;DHT22;4238;48.404;9.498;2023-12-04T17:59:55;-1.60;61.90
8402;DHT22;4238;48.404;9.498;2023-12-04T18:02:23;-1.50;54.20
8402;DHT22;4238;48.404;9.498;2023-12-04T18:04:50;-1.50;53.00
8402;DHT22;4238;48.404;9.498;2023-12-04T18:07:17;-1.50;55.00
8402;DHT22;4238;48.404;9.498;2023-12-04T18:09:44;-1.60;51.60
8402;DHT22;4238;48.404;9.498;2023-12-04T18:12:10;-1.50;57.40
8402;DHT22;4238;48.404;9.498;2023-12-04T18:14:37;-1.60;61.20
8402;DHT22;4238;48.404;9.498;2023-12-04T18:17:05;-1.60;56.50
8402;DHT22;4238;48.404;9.498;2023-12-04T18:19:32;-1.50;44.80
8402;DHT22;4238;48.404;9.498;2023-12-04T18:21:59;-1.50;44.70
8402;DHT22;4238;48.404;9.498;2023-12-04T18:24:26;-1.40;42.10
8402;DHT22;4238;48.404;9.498;2023-12-04T18:26:53;-1.50;36.90
8402;DHT22;4238;48.404;9.498;2023-12-04T18:29:21;-1.60;43.50
8402;DHT22;4238;48.404;9.498;2023-12-04T18:31:49;-1.70;39.70
8402;DHT22;4238;48.404;9.498;2023-12-04T18:34:18;-1.80;42.20
8402;DHT22;4238;48.404;9.498;2023-12-04T18:36:46;-1.90;49.60
8402;DHT22;4238;48.404;9.498;2023-12-04T18:39:15;-1.90;47.90
8402;DHT22;4238;48.404;9.498;2023-12-04T18:41:43;-2.00;49.20
8402;DHT22;4238;48.404;9.498;2023-12-04T18:44:11;-2.20;58.10
8402;DHT22;4238;48.404;9.498;2023-12-04T18:46:40;-2.30;61.90
8402;DHT22;4238;48.404;9.498;2023-12-04T18:49:08;-2.30;66.00
8402;DHT22;4238;48.404;9.498;2023-12-04T18:51:37;-2.20;62.00
8402;DHT22;4238;48.404;9.498;2023-12-04T18:54:04;-2.30;48.50
8402;DHT22;4238;48.404;9.498;2023-12-04T18:56:31;-2.40;54.60
8402;DHT22;4238;48.404;9.498;2023-12-04T18:58:58;-2.50;59.00
8402;DHT22;4238;48.404;9.498;2023-12-04T19:01:26;-2.40;57.50
8402;DHT22;4238;48.404;9.498;2023-12-04T19:03:53;-2.50;54.90
8402;DHT22;4238;48.404;9.498;2023-12-04T19:06:20;-2.60;56.00
8402;DHT22;4238;48.404;9.498;2023-12-04T19:08:49;-2.80;54.10
8402;DHT22;4238;48.404;9.498;2023-12-04T19:11:16;-2.90;60.20
8402;DHT22;4238;48.404;9.498;2023-12-04T19:13:43;-3.00;70.50
8402;DHT22;4238;48.404;9.498;2023-12-04T19:16:10;-2.80;68.20
8402;DHT22;4238;48.404;9.498;2023-12-04T19:18:37;-2.90;68.50
8402;DHT22;4238;48.404;9.498;2023-12-04T19:21:04;-2.90;74.40
8402;DHT22;4238;48.404;9.498;2023-12-04T19:23:31;-2.90;81.80
8402;DHT22;4238;48.404;9.498;2023-12-04T19:25:59;-2.70;90.60
8402;DHT22;4238;48.404;9.498;2023-12-04T19:28:26;-2.60;87.60
8402;DHT22;4238;48.404;9.498;2023-12-04T19:30:54;-2.40;83.30
8402;DHT22;4238;48.404;9.498;2023-12-04T19:33:21;-2.20;80.40
8402;DHT22;4238;48.404;9.498;2023-12-04T19:35:49;-2.10;77.00
8402;DHT22;4238;48.404;9.498;2023-12-04T19:38:15;-2.10;74.70
8402;DHT22;4238;48.404;9.498;2023-12-04T19:40:46;-2.10;72.70
8402;DHT22;4238;48.404;9.498;2023-12-04T19:43:14;-2.10;74.50
8402;DHT22;4238;48.404;9.498;2023-12-04T19:45:41;-1.90;79.60
8402;DHT22;4238;48.404;9.498;2023-12-04T19:48:08;-1.90;68.80
8402;DHT22;4238;48.404;9.498;2023-12-04T19:50:35;-2.00;73.00
8402;DHT22;4238;48.404;9.498;2023-12-04T19:53:02;-2.00;65.30
8402;DHT22;4238;48.404;9.498;2023-12-04T19:55:29;-1.90;66.30
8402;DHT22;4238;48.404;9.498;2023-12-04T19:57:56;-1.90;58.60
8402;DHT22;4238;48.404;9.498;2023-12-04T20:00:24;-1.90;57.90
8402;DHT22;4238;48.404;9.498;2023-12-04T20:02:51;-1.90;57.90
8402;DHT22;4238;48.404;9.498;2023-12-04T20:05:18;-1.90;53.40
8402;DHT22;4238;48.404;9.498;2023-12-04T20:07:46;-1.90;53.90
8402;DHT22;4238;48.404;9.498;2023-12-04T20:10:15;-2.00;47.80
8402;DHT22;4238;48.404;9.498;2023-12-04T20:12:41;-2.10;44.30
8402;DHT22;4238;48.404;9.498;2023-12-04T20:15:09;-2.20;62.40
8402;DHT22;4238;48.404;9.498;2023-12-04T20:17:37;-2.20;55.10
8402;DHT22;4238;48.404;9.498;2023-12-04T20:20:06;-2.20;56.70
8402;DHT22;4238;48.404;9.498;2023-12-04T20:22:34;-2.20;62.10
8402;DHT22;4238;48.404;9.498;2023-12-04T20:25:00;-2.10;65.10
8402;DHT22;4238;48.404;9.498;2023-12-04T20:27:28;-2.20;53.90
8402;DHT22;4238;48.404;9.498;2023-12-04T20:29:55;-2.20;63.20
8402;DHT22;4238;48.404;9.498;2023-12-04T20:32:22;-1.90;71.40
8402;DHT22;4238;48.404;9.498;2023-12-04T20:34:50;-1.90;70.30
8402;DHT22;4238;48.404;9.498;2023-12-04T20:37:17;-1.70;73.00
8402;DHT22;4238;48.404;9.498;2023-12-04T20:39:42;-1.60;64.80
8402;DHT22;4238;48.404;9.498;2023-12-04T20:42:09;-1.40;62.80
8402;DHT22;4238;48.404;9.498;2023-12-04T20:44:36;-1.30;57.00
8402;DHT22;4238;48.404;9.498;2023-12-04T20:47:04;-1.20;53.70
8402;DHT22;4238;48.404;9.498;2023-12-04T20:49:31;-1.10;50.80
8402;DHT22;4238;48.404;9.498;2023-12-04T20:52:00;-1.10;60.40
8402;DHT22;4238;48.404;9.498;2023-12-04T20:54:27;-1.10;63.10
8402;DHT22;4238;48.404;9.498;2023-12-04T20:56:54;-1.10;72.60
8402;DHT22;4238;48.404;9.498;2023-12-04T20:59:21;-1.10;78.60
8402;DHT22;4238;48.404;9.498;2023-12-04T21:01:48;-0.90;76.60
8402;DHT22;4238;48.404;9.498;2023-12-04T21:04:16;-0.90;61.00
8402;DHT22;4238;48.404;9.498;2023-12-04T21:06:43;-0.80;63.10
8402;DHT22;4238;48.404;9.498;2023-12-04T21:09:11;-0.90;62.40
8402;DHT22;4238;48.404;9.498;2023-12-04T21:11:38;-0.80;65.80
8402;DHT22;4238;48.404;9.498;2023-12-04T21:14:05;-0.70;59.50
8402;DHT22;4238;48.404;9.498;2023-12-04T21:16:32;-0.60;54.30